Time;durP1;ratioP1;P1;durP2;ratioP2;P2;SDS_P1;SDS_P2;PMS_P1;PMS_P2;Temp;Humidity;BMP_temperature;BMP_pressure;BME280_temperature;BME280_humidity;BME280_pressure;Samples;Min_cycle;Max_cycle;Signal;HPM_P1;HPM_P2
2022/01/19 00:00:36;;;;;;;7.03;2.78;;;;;;;;;;4898299;29;20384;-80
2022/01/19 00:03:02;;;;;;;5.90;2.55;;;;;;;;;;4898149;29;20021;-80
2022/01/19 00:05:27;;;;;;;6.28;2.20;;;;;;;;;;4898029;29;20103;-81
2022/01/19 00:07:53;;;;;;;4.45;2.63;;;;;;;;;;4898717;29;20024;-82
2022/01/19 00:10:26;;;;;;;5.00;2.70;;;;;;;;;;4881603;29;20396;-83
2022/01/19 00:12:52;;;;;;;4.95;2.58;;;;;;;;;;4898556;29;20040;-81
2022/01/19 00:15:18;;;;;;;8.32;2.45;;;;;;;;;;4897352;29;20024;-81
2022/01/19 00:17:43;;;;;;;8.25;3.60;;;;;;;;;;4898073;29;20388;-80
2022/01/19 00:20:09;;;;;;;10.73;3.60;;;;;;;;;;4898444;29;20142;-82
2022/01/19 00:22:37;;;;;;;7.65;3.63;;;;;;;;;;4897364;29;20033;-84
2022/01/19 00:25:03;;;;;;;7.53;3.25;;;;;;;;;;4896589;29;20067;-79
2022/01/19 00:27:28;;;;;;;6.47;3.42;;;;;;;;;;4897596;29;20068;-79
2022/01/19 00:29:54;;;;;;;8.20;4.30;;;;;;;;;;4897516;29;20043;-81
2022/01/19 00:32:22;;;;;;;3.63;2.33;;;;;;;;;;4880595;29;20104;-79
2022/01/19 00:34:47;;;;;;;5.93;2.50;;;;;;;;;;4897743;29;20040;-81
2022/01/19 00:37:13;;;;;;;7.05;2.30;;;;;;;;;;4897275;29;20033;-81
2022/01/19 00:39:38;;;;;;;8.88;2.88;;;;;;;;;;4897785;29;20414;-80
2022/01/19 00:42:04;;;;;;;10.25;3.38;;;;;;;;;;4896491;29;20036;-82
2022/01/19 00:44:29;;;;;;;5.85;3.28;;;;;;;;;;4896318;29;20036;-81
2022/01/19 00:46:55;;;;;;;5.57;3.10;;;;;;;;;;4897400;29;20032;-83
2022/01/19 00:49:20;;;;;;;7.03;3.15;;;;;;;;;;4896364;29;20096;-82
2022/01/19 00:51:46;;;;;;;7.97;3.30;;;;;;;;;;4897045;29;20024;-82
2022/01/19 00:54:12;;;;;;;4.80;2.60;;;;;;;;;;4897746;29;20032;-80
2022/01/19 00:56:37;;;;;;;6.40;2.85;;;;;;;;;;4896416;29;20036;-79
2022/01/19 00:59:03;;;;;;;7.15;3.45;;;;;;;;;;4897204;29;20455;-80
2022/01/19 01:01:28;;;;;;;5.70;3.05;;;;;;;;;;4880539;29;20073;-82
2022/01/19 01:03:54;;;;;;;4.15;2.13;;;;;;;;;;4880681;29;20445;-81
2022/01/19 01:06:20;;;;;;;4.40;1.98;;;;;;;;;;4880016;29;20543;-81
2022/01/19 01:08:45;;;;;;;9.43;3.17;;;;;;;;;;4880599;29;20060;-80
2022/01/19 01:11:11;;;;;;;5.25;2.50;;;;;;;;;;4897319;29;20040;-81
2022/01/19 01:16:37;;;;;;;6.60;4.43;;;;;;;;;;4895842;29;20059;-80
2022/01/19 01:19:05;;;;;;;9.65;2.72;;;;;;;;;;4878992;29;20037;-81
2022/01/19 01:21:31;;;;;;;8.85;4.22;;;;;;;;;;4896847;29;20095;-82
2022/01/19 01:23:57;;;;;;;5.20;2.38;;;;;;;;;;4896873;29;20028;-83
2022/01/19 01:26:22;;;;;;;7.63;2.60;;;;;;;;;;4896632;29;20032;-80
2022/01/19 01:28:48;;;;;;;6.80;3.90;;;;;;;;;;4896877;29;20483;-84
2022/01/19 01:31:14;;;;;;;9.48;4.05;;;;;;;;;;4897023;29;20028;-83
2022/01/19 01:33:40;;;;;;;6.97;2.80;;;;;;;;;;4896680;29;20096;-80
2022/01/19 01:36:06;;;;;;;5.00;2.22;;;;;;;;;;4896491;29;20485;-80
2022/01/19 01:38:32;;;;;;;9.98;3.20;;;;;;;;;;4896479;29;20068;-83
2022/01/19 01:40:57;;;;;;;3.50;2.38;;;;;;;;;;4896211;29;20039;-82
2022/01/19 01:43:23;;;;;;;3.55;1.80;;;;;;;;;;4896650;29;20040;-81
2022/01/19 01:45:53;;;;;;;4.30;2.28;;;;;;;;;;4895867;29;20055;-80
2022/01/19 01:48:23;;;;;;;5.07;2.72;;;;;;;;;;4896873;29;20027;-84
2022/01/19 01:53:36;;;;;;;5.03;2.75;;;;;;;;;;4896907;29;20051;-79
2022/01/19 01:56:07;;;;;;;7.18;3.50;;;;;;;;;;4877449;29;20124;-80
2022/01/19 01:58:41;;;;;;;7.35;3.28;;;;;;;;;;4894834;29;20028;-79
2022/01/19 02:01:08;;;;;;;4.85;2.10;;;;;;;;;;4895010;29;20044;-81
2022/01/19 02:03:39;;;;;;;2.35;2.00;;;;;;;;;;4894929;29;20107;-79
2022/01/19 02:06:32;;;;;;;5.53;2.50;;;;;;;;;;4894089;29;20028;-80
2022/01/19 02:22:54;;;;;;;4.00;2.88;;;;;;;;;;4895900;29;20050;-78
2022/01/19 02:25:26;;;;;;;3.35;2.05;;;;;;;;;;4878232;29;20040;-79
2022/01/19 02:41:37;;;;;;;4.45;2.10;;;;;;;;;;4895270;29;20110;-80
2022/01/19 02:44:04;;;;;;;4.57;2.63;;;;;;;;;;4894466;29;20400;-79
2022/01/19 02:49:15;;;;;;;2.90;1.98;;;;;;;;;;4901851;29;20916;-78
2022/01/19 02:51:47;;;;;;;4.40;3.15;;;;;;;;;;4899577;29;20099;-78
2022/01/19 02:54:18;;;;;;;5.43;2.17;;;;;;;;;;4900359;29;20028;-79
2022/01/19 02:56:48;;;;;;;7.18;2.60;;;;;;;;;;4898830;29;20036;-78
2022/01/19 02:59:20;;;;;;;2.90;1.58;;;;;;;;;;4901502;29;20115;-78
2022/01/19 03:09:43;;;;;;;4.22;1.95;;;;;;;;;;4900954;29;20388;-80
2022/01/19 03:12:10;;;;;;;7.22;2.92;;;;;;;;;;4900265;29;20028;-80
2022/01/19 03:14:36;;;;;;;5.63;2.33;;;;;;;;;;4901366;29;20075;-80
2022/01/19 03:17:02;;;;;;;5.53;3.10;;;;;;;;;;4899937;29;20040;-79
2022/01/19 03:19:29;;;;;;;8.00;1.98;;;;;;;;;;4899972;29;20051;-81
2022/01/19 03:21:55;;;;;;;4.43;1.88;;;;;;;;;;4884358;29;20111;-80
2022/01/19 03:24:21;;;;;;;4.10;2.58;;;;;;;;;;4884148;29;20139;-80
2022/01/19 03:26:46;;;;;;;4.60;2.20;;;;;;;;;;4901610;29;20032;-80
2022/01/19 03:29:12;;;;;;;5.78;2.63;;;;;;;;;;4901595;29;20032;-79
2022/01/19 03:31:38;;;;;;;4.75;3.20;;;;;;;;;;4900142;29;20481;-80
2022/01/19 03:34:05;;;;;;;6.95;4.05;;;;;;;;;;4901773;29;20070;-80
2022/01/19 03:36:31;;;;;;;3.67;2.33;;;;;;;;;;4901675;29;20477;-82
2022/01/19 03:38:57;;;;;;;5.63;3.10;;;;;;;;;;4901914;29;20037;-79
2022/01/19 03:41:23;;;;;;;6.70;2.53;;;;;;;;;;4901941;29;20035;-81
2022/01/19 03:43:48;;;;;;;5.95;3.20;;;;;;;;;;4902109;29;20111;-78
2022/01/19 03:46:15;;;;;;;4.35;2.95;;;;;;;;;;4884570;29;20032;-80
2022/01/19 03:51:12;;;;;;;4.38;2.20;;;;;;;;;;4901394;29;20523;-80
2022/01/19 03:53:38;;;;;;;3.17;1.67;;;;;;;;;;4901734;29;20052;-79
2022/01/19 03:56:04;;;;;;;3.28;1.95;;;;;;;;;;4901122;29;20035;-80
2022/01/19 03:58:30;;;;;;;7.78;2.92;;;;;;;;;;4899579;29;20036;-82
2022/01/19 04:00:57;;;;;;;3.40;2.35;;;;;;;;;;4897546;29;20024;-82
2022/01/19 04:04:05;;;;;;;5.95;2.85;;;;;;;;;;4898682;29;20028;-80
2022/01/19 04:06:51;;;;;;;2.75;2.00;;;;;;;;;;4896914;29;20491;-79
2022/01/19 04:09:14;;;;;;;6.80;2.55;;;;;;;;;;4897709;29;20171;-79
2022/01/19 04:11:39;;;;;;;7.00;2.60;;;;;;;;;;4898508;29;20469;-82
2022/01/19 04:16:31;;;;;;;5.43;2.90;;;;;;;;;;4897876;29;20040;-81
2022/01/19 04:19:09;;;;;;;6.22;3.95;;;;;;;;;;4897993;29;20492;-83
2022/01/19 04:21:34;;;;;;;5.00;2.30;;;;;;;;;;4897998;29;20373;-83
2022/01/19 04:24:00;;;;;;;4.57;2.50;;;;;;;;;;4897910;29;20032;-81
2022/01/19 04:26:26;;;;;;;6.13;2.17;;;;;;;;;;4898338;29;20028;-81
2022/01/19 04:28:51;;;;;;;4.57;3.10;;;;;;;;;;4898142;29;20021;-81
2022/01/19 04:31:17;;;;;;;11.15;4.70;;;;;;;;;;4898098;29;20385;-82
2022/01/19 04:33:44;;;;;;;5.60;2.53;;;;;;;;;;4897978;29;20127;-81
2022/01/19 04:37:28;;;;;;;3.42;2.30;;;;;;;;;;4898046;29;20032;-81
2022/01/19 05:05:48;;;;;;;3.90;2.50;;;;;;;;;;4897104;29;20024;-82
2022/01/19 05:08:33;;;;;;;7.10;3.92;;;;;;;;;;4880590;29;20043;-79
2022/01/19 05:13:50;;;;;;;4.75;3.33;;;;;;;;;;4894897;29;20557;-80
2022/01/19 05:16:16;;;;;;;8.60;3.45;;;;;;;;;;4879839;29;20035;-81
2022/01/19 05:18:41;;;;;;;7.32;2.78;;;;;;;;;;4895297;29;20033;-80
2022/01/19 05:21:07;;;;;;;3.22;2.05;;;;;;;;;;4897013;29;20029;-81
2022/01/19 05:23:32;;;;;;;5.15;3.30;;;;;;;;;;4896894;29;20047;-81
2022/01/19 05:25:58;;;;;;;8.95;2.63;;;;;;;;;;4897139;29;20132;-80
2022/01/19 05:28:23;;;;;;;4.32;2.42;;;;;;;;;;4897348;29;20401;-80
2022/01/19 05:30:49;;;;;;;4.95;2.40;;;;;;;;;;4897107;29;20040;-81
2022/01/19 05:33:14;;;;;;;7.50;4.20;;;;;;;;;;4896763;29;20540;-79
2022/01/19 05:35:40;;;;;;;7.70;3.25;;;;;;;;;;4896408;29;20028;-79
2022/01/19 05:38:05;;;;;;;3.15;2.10;;;;;;;;;;4896561;29;20088;-79
2022/01/19 05:40:31;;;;;;;4.63;2.65;;;;;;;;;;4896546;29;20036;-81
2022/01/19 05:42:56;;;;;;;7.20;3.53;;;;;;;;;;4895390;29;20099;-81
2022/01/19 05:45:22;;;;;;;6.45;2.67;;;;;;;;;;4896763;29;20460;-81
2022/01/19 05:47:48;;;;;;;5.28;3.05;;;;;;;;;;4895235;29;20029;-80
2022/01/19 05:50:14;;;;;;;4.78;3.15;;;;;;;;;;4895904;29;20039;-80
2022/01/19 05:52:39;;;;;;;7.93;3.92;;;;;;;;;;4896883;29;20028;-81
2022/01/19 05:55:05;;;;;;;6.55;4.72;;;;;;;;;;4896873;29;20076;-81
2022/01/19 05:57:32;;;;;;;7.80;4.55;;;;;;;;;;4896603;29;20020;-82
2022/01/19 05:59:57;;;;;;;4.43;3.58;;;;;;;;;;4879573;29;20061;-82
2022/01/19 06:02:23;;;;;;;2.80;1.83;;;;;;;;;;4896426;29;20107;-83
2022/01/19 06:04:49;;;;;;;7.65;4.50;;;;;;;;;;4896926;29;20032;-82
2022/01/19 06:07:15;;;;;;;5.45;2.75;;;;;;;;;;4896394;29;20040;-80
2022/01/19 06:12:09;;;;;;;8.10;3.47;;;;;;;;;;4896590;29;20040;-81
2022/01/19 06:14:37;;;;;;;8.93;4.03;;;;;;;;;;4879269;29;20607;-79
2022/01/19 06:17:04;;;;;;;11.00;5.57;;;;;;;;;;4894761;29;20524;-79
2022/01/19 06:19:30;;;;;;;4.38;2.85;;;;;;;;;;4893591;29;20105;-81
2022/01/19 06:21:56;;;;;;;5.25;3.08;;;;;;;;;;4895413;29;20033;-79
2022/01/19 06:24:21;;;;;;;6.88;3.55;;;;;;;;;;4895622;29;20111;-83
2022/01/19 06:26:47;;;;;;;8.05;4.88;;;;;;;;;;4895998;29;20025;-79
2022/01/19 06:29:13;;;;;;;11.82;5.53;;;;;;;;;;4894858;29;20365;-81
2022/01/19 06:31:38;;;;;;;6.18;4.05;;;;;;;;;;4895412;29;20084;-79
2022/01/19 06:34:04;;;;;;;8.98;3.00;;;;;;;;;;4895848;29;20128;-83
2022/01/19 06:36:30;;;;;;;10.35;3.55;;;;;;;;;;4895756;29;20060;-80
2022/01/19 06:38:55;;;;;;;6.13;3.47;;;;;;;;;;4892604;29;20505;-81
2022/01/19 06:41:21;;;;;;;8.80;3.75;;;;;;;;;;4895068;29;20048;-81
2022/01/19 06:43:46;;;;;;;6.00;3.13;;;;;;;;;;4892282;29;20473;-82
2022/01/19 06:46:12;;;;;;;9.55;3.50;;;;;;;;;;4892161;29;20044;-81
2022/01/19 06:48:38;;;;;;;5.78;3.55;;;;;;;;;;4891888;29;20028;-82
2022/01/19 06:51:04;;;;;;;7.53;3.35;;;;;;;;;;4892179;29;20445;-83
2022/01/19 06:53:29;;;;;;;10.77;4.47;;;;;;;;;;4889291;29;20033;-82
2022/01/19 06:55:57;;;;;;;15.07;4.25;;;;;;;;;;4895124;29;20039;-80
2022/01/19 06:58:25;;;;;;;6.75;3.80;;;;;;;;;;4895703;29;20461;-81
2022/01/19 07:00:50;;;;;;;5.30;3.42;;;;;;;;;;4895636;29;20393;-79
2022/01/19 07:03:16;;;;;;;6.05;4.10;;;;;;;;;;4895452;29;20037;-77
2022/01/19 07:05:41;;;;;;;7.65;4.70;;;;;;;;;;4895165;29;20437;-80
2022/01/19 07:08:07;;;;;;;6.18;3.58;;;;;;;;;;4894060;29;20485;-77
2022/01/19 07:10:33;;;;;;;5.82;3.17;;;;;;;;;;4894514;29;20064;-79
2022/01/19 07:13:03;;;;;;;6.10;3.35;;;;;;;;;;4895203;29;20500;-78
2022/01/19 07:15:29;;;;;;;14.10;7.45;;;;;;;;;;4894147;29;20029;-79
2022/01/19 07:17:55;;;;;;;10.77;5.90;;;;;;;;;;4895168;29;20088;-79
2022/01/19 07:20:21;;;;;;;16.45;6.57;;;;;;;;;;4888338;29;20047;-79
2022/01/19 07:22:48;;;;;;;17.83;6.40;;;;;;;;;;4895348;29;20040;-80
2022/01/19 07:25:14;;;;;;;11.15;5.32;;;;;;;;;;4890351;29;20114;-78
2022/01/19 07:27:39;;;;;;;13.05;7.00;;;;;;;;;;4894296;29;20104;-78
2022/01/19 07:30:07;;;;;;;9.65;4.60;;;;;;;;;;4884772;29;20115;-78
2022/01/19 07:32:34;;;;;;;8.88;4.05;;;;;;;;;;4893266;29;20048;-79
2022/01/19 07:35:01;;;;;;;6.80;3.83;;;;;;;;;;4897771;29;20028;-79
2022/01/19 07:37:26;;;;;;;10.23;6.60;;;;;;;;;;4898330;29;20040;-81
2022/01/19 07:39:52;;;;;;;6.72;4.75;;;;;;;;;;4896458;29;20034;-79
2022/01/19 07:42:18;;;;;;;12.32;4.80;;;;;;;;;;4898568;29;20025;-80
2022/01/19 07:44:43;;;;;;;9.30;4.38;;;;;;;;;;4896787;29;20080;-79
2022/01/19 07:47:10;;;;;;;8.75;4.35;;;;;;;;;;4898407;29;20503;-80
2022/01/19 07:49:35;;;;;;;4.78;2.97;;;;;;;;;;4898316;29;20465;-80
2022/01/19 07:52:01;;;;;;;10.02;4.35;;;;;;;;;;4898738;29;20075;-79
2022/01/19 07:54:26;;;;;;;8.70;3.63;;;;;;;;;;4898420;29;20028;-80
2022/01/19 07:56:52;;;;;;;10.82;4.00;;;;;;;;;;4898751;29;20028;-80
2022/01/19 07:59:17;;;;;;;10.57;4.30;;;;;;;;;;4898138;29;20369;-80
2022/01/19 08:01:43;;;;;;;7.10;4.18;;;;;;;;;;4881373;29;20039;-79
2022/01/19 08:04:09;;;;;;;8.63;4.90;;;;;;;;;;4898573;29;20032;-78
2022/01/19 08:06:35;;;;;;;11.32;4.22;;;;;;;;;;4898307;29;20039;-78
2022/01/19 08:09:00;;;;;;;7.88;4.72;;;;;;;;;;4881549;29;20100;-81
2022/01/19 08:11:26;;;;;;;9.20;4.82;;;;;;;;;;4898352;29;20032;-78
2022/01/19 08:13:52;;;;;;;7.28;4.53;;;;;;;;;;4897979;29;20374;-80
2022/01/19 08:16:18;;;;;;;7.18;3.75;;;;;;;;;;4897250;29;20032;-79
2022/01/19 08:18:43;;;;;;;5.50;3.63;;;;;;;;;;4898377;29;20405;-80
2022/01/19 08:21:09;;;;;;;7.68;3.88;;;;;;;;;;4897981;29;20036;-80
2022/01/19 08:23:34;;;;;;;6.47;4.18;;;;;;;;;;4898310;29;20028;-81
2022/01/19 08:26:00;;;;;;;5.15;3.38;;;;;;;;;;4896478;29;20055;-82
2022/01/19 08:28:26;;;;;;;9.25;5.25;;;;;;;;;;4880152;29;20032;-78
2022/01/19 08:30:51;;;;;;;7.80;5.07;;;;;;;;;;4897160;29;20077;-78
2022/01/19 08:33:17;;;;;;;5.28;3.13;;;;;;;;;;4895921;29;20064;-79
2022/01/19 08:35:42;;;;;;;6.68;3.60;;;;;;;;;;4875802;29;20116;-78
2022/01/19 08:38:08;;;;;;;9.75;4.05;;;;;;;;;;4896447;29;20036;-77
2022/01/19 08:40:36;;;;;;;8.30;3.67;;;;;;;;;;4896191;29;20040;-78
2022/01/19 08:43:02;;;;;;;6.10;3.13;;;;;;;;;;4877757;29;20040;-79
2022/01/19 08:45:28;;;;;;;8.00;4.40;;;;;;;;;;4896434;29;20032;-80
2022/01/19 08:47:53;;;;;;;5.43;3.53;;;;;;;;;;4897165;29;20648;-79
2022/01/19 08:50:19;;;;;;;7.57;3.90;;;;;;;;;;4896480;29;20477;-78
2022/01/19 08:52:46;;;;;;;6.15;2.80;;;;;;;;;;4892184;29;20043;-79
2022/01/19 08:55:11;;;;;;;9.25;4.07;;;;;;;;;;4879382;29;20036;-78
2022/01/19 08:57:37;;;;;;;6.60;3.33;;;;;;;;;;4896203;29;20388;-79
2022/01/19 09:00:06;;;;;;;5.55;3.30;;;;;;;;;;4895264;29;20036;-80
2022/01/19 09:02:32;;;;;;;9.23;4.60;;;;;;;;;;4897355;29;20096;-79
2022/01/19 09:04:58;;;;;;;6.30;3.25;;;;;;;;;;4895515;29;20370;-82
2022/01/19 09:07:23;;;;;;;7.10;3.88;;;;;;;;;;4896728;29;20035;-83
2022/01/19 09:09:49;;;;;;;7.40;4.00;;;;;;;;;;4897174;29;20025;-81
2022/01/19 09:12:14;;;;;;;7.60;4.63;;;;;;;;;;4895429;29;20040;-80
2022/01/19 09:14:40;;;;;;;9.10;4.07;;;;;;;;;;4878073;29;20035;-80
2022/01/19 09:17:08;;;;;;;7.60;3.63;;;;;;;;;;4895842;29;20386;-80
2022/01/19 09:19:36;;;;;;;7.70;3.80;;;;;;;;;;4895286;29;20263;-79
2022/01/19 09:22:03;;;;;;;5.55;3.13;;;;;;;;;;4897465;29;20028;-81
2022/01/19 09:24:29;;;;;;;6.32;4.50;;;;;;;;;;4895753;29;20476;-78
2022/01/19 09:26:55;;;;;;;4.80;3.50;;;;;;;;;;4896978;29;20108;-77
2022/01/19 09:29:20;;;;;;;6.85;3.78;;;;;;;;;;4897063;29;20107;-77
2022/01/19 09:31:46;;;;;;;9.27;4.25;;;;;;;;;;4892197;29;20025;-79
2022/01/19 09:34:15;;;;;;;5.70;3.40;;;;;;;;;;4896894;29;20029;-79
2022/01/19 09:36:48;;;;;;;6.78;3.58;;;;;;;;;;4896434;29;20024;-79
2022/01/19 09:39:16;;;;;;;8.55;2.95;;;;;;;;;;4895200;29;20096;-78
2022/01/19 09:41:43;;;;;;;4.57;3.72;;;;;;;;;;4896770;29;20032;-77
2022/01/19 09:44:09;;;;;;;9.00;4.40;;;;;;;;;;4896789;29;20048;-80
2022/01/19 09:46:35;;;;;;;12.85;4.50;;;;;;;;;;4897100;29;20068;-79
2022/01/19 09:49:03;;;;;;;8.27;4.78;;;;;;;;;;4896353;29;20111;-78
2022/01/19 09:51:28;;;;;;;7.75;4.57;;;;;;;;;;4896678;29;20111;-80
2022/01/19 09:53:54;;;;;;;7.45;3.92;;;;;;;;;;4896179;29;20115;-80
2022/01/19 09:56:20;;;;;;;13.02;3.40;;;;;;;;;;4896421;29;20036;-79
2022/01/19 09:58:47;;;;;;;9.57;4.07;;;;;;;;;;4895871;29;20124;-79
2022/01/19 10:01:20;;;;;;;8.45;4.68;;;;;;;;;;4895399;29;20032;-79
2022/01/19 10:03:46;;;;;;;6.57;4.90;;;;;;;;;;4896043;29;20024;-79
2022/01/19 10:06:17;;;;;;;9.40;5.15;;;;;;;;;;4895530;29;20029;-77
2022/01/19 10:08:45;;;;;;;13.07;5.50;;;;;;;;;;4896137;29;20388;-79
2022/01/19 10:16:58;;;;;;;13.77;4.95;;;;;;;;;;4896315;29;20539;-79
2022/01/19 10:17:09;;;;;;;7.95;4.75;;;;;;;;;;4892047;29;20135;-80
2022/01/19 10:19:37;;;;;;;8.43;4.18;;;;;;;;;;4895631;29;20119;-81
2022/01/19 10:22:09;;;;;;;9.15;3.90;;;;;;;;;;4891081;29;20040;-80
2022/01/19 10:24:50;;;;;;;14.05;5.93;;;;;;;;;;4878910;29;20115;-78
2022/01/19 10:27:45;;;;;;;9.60;4.40;;;;;;;;;;4896025;29;21527;-78
2022/01/19 10:30:23;;;;;;;7.35;3.60;;;;;;;;;;4891354;29;20045;-79
2022/01/19 10:32:59;;;;;;;12.68;5.50;;;;;;;;;;4895903;29;20059;-80
2022/01/19 10:35:30;;;;;;;16.23;4.93;;;;;;;;;;4895670;29;20500;-79
2022/01/19 10:38:09;;;;;;;9.73;6.43;;;;;;;;;;4895526;29;20024;-80
2022/01/19 10:40:38;;;;;;;10.38;4.93;;;;;;;;;;4894705;29;20037;-79
2022/01/19 10:43:25;;;;;;;18.77;5.05;;;;;;;;;;4893893;29;20401;-79
2022/01/19 10:45:50;;;;;;;9.40;4.45;;;;;;;;;;4891802;29;20115;-80
2022/01/19 10:48:33;;;;;;;9.38;4.10;;;;;;;;;;4873607;29;20116;-79
2022/01/19 10:51:08;;;;;;;8.73;5.15;;;;;;;;;;4894223;29;20059;-79
2022/01/19 10:53:34;;;;;;;9.55;4.90;;;;;;;;;;4892401;29;20033;-80
2022/01/19 10:56:02;;;;;;;6.72;4.82;;;;;;;;;;4895142;29;20389;-81
2022/01/19 10:58:27;;;;;;;8.00;4.95;;;;;;;;;;4895474;29;20033;-78
2022/01/19 11:00:55;;;;;;;10.23;4.15;;;;;;;;;;4895362;29;20080;-81
2022/01/19 11:03:26;;;;;;;7.53;5.30;;;;;;;;;;4895322;29;20036;-79
2022/01/19 11:05:59;;;;;;;9.95;5.82;;;;;;;;;;4894778;29;20099;-78
2022/01/19 11:08:27;;;;;;;9.50;4.30;;;;;;;;;;4897545;29;20032;-78
2022/01/19 11:10:55;;;;;;;11.02;5.90;;;;;;;;;;4898671;29;20020;-79
2022/01/19 11:13:39;;;;;;;9.40;5.38;;;;;;;;;;4899033;29;20495;-78
2022/01/19 11:16:06;;;;;;;9.38;5.03;;;;;;;;;;4898573;29;20472;-80
2022/01/19 11:18:37;;;;;;;14.35;4.78;;;;;;;;;;4899182;29;20360;-80
2022/01/19 11:21:07;;;;;;;11.93;4.70;;;;;;;;;;4894967;29;20111;-80
2022/01/19 11:23:40;;;;;;;;;;;;;;;;;;4897690;29;20048;-78
2022/01/19 11:26:16;;;;;;;10.00;4.88;;;;;;;;;;4898217;29;19927;-79
2022/01/19 11:28:46;;;;;;;6.82;4.28;;;;;;;;;;4896441;29;20029;-79
2022/01/19 11:31:35;;;;;;;12.73;6.00;;;;;;;;;;4898575;29;20115;-81
2022/01/19 11:34:01;;;;;;;19.17;7.68;;;;;;;;;;4898162;29;20124;-78
2022/01/19 11:36:35;;;;;;;7.57;4.60;;;;;;;;;;4898956;29;20532;-81
2022/01/19 11:39:11;;;;;;;7.68;4.88;;;;;;;;;;4896502;29;20043;-80
2022/01/19 11:41:45;;;;;;;5.50;3.70;;;;;;;;;;4898094;29;20031;-80
2022/01/19 11:44:17;;;;;;;12.48;5.43;;;;;;;;;;4886738;29;20040;-81
2022/01/19 11:46:46;;;;;;;11.00;5.97;;;;;;;;;;4897582;29;20051;-79
2022/01/19 11:49:14;;;;;;;12.02;5.75;;;;;;;;;;4898373;29;20031;-81
2022/01/19 11:51:44;;;;;;;7.55;4.10;;;;;;;;;;4898506;29;20021;-78
2022/01/19 11:54:29;;;;;;;12.07;5.32;;;;;;;;;;4896760;29;20115;-79
2022/01/19 11:57:04;;;;;;;10.43;5.28;;;;;;;;;;4898388;29;20032;-78
2022/01/19 11:59:30;;;;;;;9.10;5.68;;;;;;;;;;4897811;29;20024;-79
2022/01/19 12:02:20;;;;;;;12.90;6.15;;;;;;;;;;4897875;29;20035;-79
2022/01/19 12:04:47;;;;;;;8.00;4.78;;;;;;;;;;4894767;29;20357;-80
2022/01/19 12:07:38;;;;;;;8.30;5.20;;;;;;;;;;4897905;29;20051;-80
2022/01/19 12:10:06;;;;;;;10.48;5.05;;;;;;;;;;4898223;29;20469;-79
2022/01/19 12:12:38;;;;;;;6.18;3.95;;;;;;;;;;4897557;29;20582;-78
2022/01/19 12:15:07;;;;;;;9.45;5.10;;;;;;;;;;4897567;29;20028;-79
2022/01/19 12:17:53;;;;;;;7.13;5.10;;;;;;;;;;4898075;29;20123;-79
2022/01/19 12:20:46;;;;;;;7.00;4.10;;;;;;;;;;4895485;29;20039;-79
2022/01/19 12:23:27;;;;;;;9.57;5.72;;;;;;;;;;4896838;29;20393;-79
2022/01/19 12:25:57;;;;;;;13.48;4.88;;;;;;;;;;4895578;29;20037;-80
2022/01/19 12:28:43;;;;;;;10.50;6.00;;;;;;;;;;4897945;29;20858;-79
2022/01/19 12:31:36;;;;;;;8.43;4.75;;;;;;;;;;4897380;29;20037;-80
2022/01/19 12:34:05;;;;;;;12.05;5.07;;;;;;;;;;4892775;29;20056;-81
2022/01/19 12:36:46;;;;;;;10.02;4.82;;;;;;;;;;4896082;29;20032;-80
2022/01/19 12:39:26;;;;;;;10.80;5.70;;;;;;;;;;4896183;29;20032;-81
2022/01/19 12:41:56;;;;;;;13.20;6.78;;;;;;;;;;4897230;29;20412;-79
2022/01/19 12:44:51;;;;;;;20.00;8.07;;;;;;;;;;4880487;29;20040;-79
2022/01/19 12:47:28;;;;;;;10.95;5.75;;;;;;;;;;4879308;29;20045;-81
2022/01/19 12:50:09;;;;;;;9.48;6.18;;;;;;;;;;4896832;29;20354;-79
2022/01/19 12:52:53;;;;;;;14.43;6.32;;;;;;;;;;4897460;29;20035;-81
2022/01/19 12:55:32;;;;;;;16.75;6.00;;;;;;;;;;4894707;29;20076;-83
2022/01/19 12:57:58;;;;;;;9.05;5.50;;;;;;;;;;4897502;29;20021;-83
2022/01/19 13:00:29;;;;;;;11.30;5.55;;;;;;;;;;4897362;29;20381;-80
2022/01/19 13:02:57;;;;;;;12.45;5.68;;;;;;;;;;4897077;29;20438;-80
2022/01/19 13:05:25;;;;;;;13.00;5.20;;;;;;;;;;4880547;29;20123;-79
2022/01/19 13:07:59;;;;;;;8.85;5.45;;;;;;;;;;4897031;29;20096;-80
2022/01/19 13:13:11;;;;;;;14.18;6.32;;;;;;;;;;4897331;29;20404;-81
2022/01/19 13:15:58;;;;;;;14.38;6.78;;;;;;;;;;4895003;29;20430;-78
2022/01/19 13:18:42;;;;;;;10.43;6.22;;;;;;;;;;4896036;29;20042;-81
2022/01/19 13:21:14;;;;;;;13.63;7.03;;;;;;;;;;4893956;29;20028;-79
2022/01/19 13:24:01;;;;;;;12.55;5.53;;;;;;;;;;4896939;29;20412;-79
2022/01/19 13:26:59;;;;;;;10.95;6.90;;;;;;;;;;4896741;29;20028;-80
2022/01/19 13:29:27;;;;;;;9.90;4.80;;;;;;;;;;4878621;29;20396;-80
2022/01/19 13:32:05;;;;;;;11.65;5.55;;;;;;;;;;4896244;29;20064;-82
2022/01/19 13:34:35;;;;;;;12.23;6.53;;;;;;;;;;4895409;29;20103;-79
2022/01/19 13:37:03;;;;;;;11.10;5.55;;;;;;;;;;4895333;29;20497;-79
2022/01/19 13:39:32;;;;;;;16.65;7.82;;;;;;;;;;4895370;29;20039;-78
2022/01/19 13:41:59;;;;;;;15.15;7.45;;;;;;;;;;4896716;29;20021;-81
2022/01/19 13:44:32;;;;;;;16.85;7.38;;;;;;;;;;4895587;29;20036;-78
2022/01/19 13:47:16;;;;;;;13.20;7.88;;;;;;;;;;4896415;29;20089;-80
2022/01/19 13:49:52;;;;;;;11.13;6.30;;;;;;;;;;4894379;29;20025;-80
2022/01/19 13:52:25;;;;;;;16.35;5.93;;;;;;;;;;4896242;29;20036;-80
2022/01/19 13:54:51;;;;;;;16.70;7.20;;;;;;;;;;4894537;29;20040;-80
2022/01/19 13:57:29;;;;;;;13.20;6.70;;;;;;;;;;4896369;29;20033;-81
2022/01/19 14:00:13;;;;;;;12.27;5.95;;;;;;;;;;4879561;29;20568;-80
2022/01/19 14:02:39;;;;;;;9.45;5.82;;;;;;;;;;4895806;29;20427;-80
2022/01/19 14:05:05;;;;;;;19.83;7.95;;;;;;;;;;4895922;29;20033;-79
2022/01/19 14:07:31;;;;;;;14.85;7.72;;;;;;;;;;4896380;29;20028;-79
2022/01/19 14:10:07;;;;;;;24.27;6.63;;;;;;;;;;4896008;29;20032;-79
2022/01/19 14:12:32;;;;;;;13.73;8.48;;;;;;;;;;4896529;29;20036;-78
2022/01/19 14:15:00;;;;;;;13.57;6.13;;;;;;;;;;4895609;29;20028;-79
2022/01/19 14:17:33;;;;;;;13.15;5.50;;;;;;;;;;4896170;29;20025;-80
2022/01/19 14:20:01;;;;;;;16.10;6.68;;;;;;;;;;4896409;29;20421;-80
2022/01/19 14:22:32;;;;;;;23.23;7.15;;;;;;;;;;4896257;29;20046;-80
2022/01/19 14:25:00;;;;;;;10.90;6.57;;;;;;;;;;4895808;29;20028;-80
2022/01/19 14:27:26;;;;;;;12.88;6.90;;;;;;;;;;4895961;29;20374;-82
2022/01/19 14:30:14;;;;;;;13.23;5.72;;;;;;;;;;4895501;29;20031;-80
2022/01/19 14:32:44;;;;;;;12.55;7.65;;;;;;;;;;4895803;29;20128;-80
2022/01/19 14:35:36;;;;;;;14.93;7.03;;;;;;;;;;4895334;29;20043;-81
2022/01/19 14:38:12;;;;;;;15.07;6.82;;;;;;;;;;4893234;29;20043;-79
2022/01/19 14:40:50;;;;;;;19.00;7.93;;;;;;;;;;4892559;29;20028;-80
2022/01/19 14:43:19;;;;;;;14.68;6.65;;;;;;;;;;4892223;29;20032;-83
2022/01/19 14:45:52;;;;;;;18.63;7.28;;;;;;;;;;4894987;29;20032;-80
2022/01/19 14:48:19;;;;;;;16.20;7.78;;;;;;;;;;4890101;29;20465;-80
2022/01/19 14:50:45;;;;;;;14.90;6.57;;;;;;;;;;4894395;29;20025;-79
2022/01/19 14:53:12;;;;;;;13.95;6.32;;;;;;;;;;4895208;29;20108;-80
2022/01/19 14:55:41;;;;;;;8.77;5.00;;;;;;;;;;4892492;29;20540;-80
2022/01/19 14:58:08;;;;;;;14.50;6.30;;;;;;;;;;4894640;29;20039;-79
2022/01/19 15:00:36;;;;;;;9.90;6.07;;;;;;;;;;4878169;29;20036;-80
2022/01/19 15:03:02;;;;;;;11.90;6.03;;;;;;;;;;4878571;29;20115;-79
2022/01/19 15:05:41;;;;;;;12.63;6.13;;;;;;;;;;4893708;29;20041;-78
2022/01/19 15:08:08;;;;;;;10.35;5.50;;;;;;;;;;4893717;29;20107;-79
2022/01/19 15:10:35;;;;;;;12.98;6.55;;;;;;;;;;4895226;29;20037;-80
2022/01/19 15:13:03;;;;;;;24.58;7.75;;;;;;;;;;4893082;29;20036;-80
2022/01/19 15:15:31;;;;;;;11.85;6.18;;;;;;;;;;4895407;29;20031;-79
2022/01/19 15:17:59;;;;;;;12.27;5.40;;;;;;;;;;4878688;29;20032;-79
2022/01/19 15:20:26;;;;;;;18.85;6.70;;;;;;;;;;4894448;29;20044;-81
2022/01/19 15:22:59;;;;;;;12.27;6.57;;;;;;;;;;4895026;29;20032;-78
2022/01/19 15:25:26;;;;;;;11.98;6.88;;;;;;;;;;4894553;29;20042;-80
2022/01/19 15:27:52;;;;;;;13.85;6.65;;;;;;;;;;4894821;29;20064;-79
2022/01/19 15:30:18;;;;;;;14.70;8.10;;;;;;;;;;4894816;29;20020;-80
2022/01/19 15:32:43;;;;;;;13.40;7.75;;;;;;;;;;4895499;29;20573;-79
2022/01/19 15:35:11;;;;;;;10.65;6.85;;;;;;;;;;4894902;29;20028;-80
2022/01/19 15:37:37;;;;;;;14.82;7.32;;;;;;;;;;4895189;29;20442;-80
2022/01/19 15:40:08;;;;;;;12.02;5.43;;;;;;;;;;4895522;29;20037;-78
2022/01/19 15:42:33;;;;;;;15.50;6.78;;;;;;;;;;4894895;29;20395;-80
2022/01/19 15:44:59;;;;;;;12.88;5.68;;;;;;;;;;4895007;29;20111;-80
2022/01/19 15:47:24;;;;;;;7.93;5.03;;;;;;;;;;4895340;29;20063;-79
2022/01/19 15:49:50;;;;;;;10.25;6.00;;;;;;;;;;4895189;29;20112;-79
2022/01/19 15:52:15;;;;;;;15.70;6.28;;;;;;;;;;4895381;29;20429;-80
2022/01/19 15:54:40;;;;;;;13.10;5.93;;;;;;;;;;4896390;29;20048;-80
2022/01/19 15:57:06;;;;;;;10.57;6.40;;;;;;;;;;4898738;29;20040;-79
2022/01/19 15:59:32;;;;;;;12.80;6.30;;;;;;;;;;4881579;29;20117;-80
2022/01/19 16:01:57;;;;;;;11.95;6.22;;;;;;;;;;4897465;29;20477;-79
2022/01/19 16:04:23;;;;;;;10.40;6.68;;;;;;;;;;4898383;29;20076;-80
2022/01/19 16:06:48;;;;;;;10.43;6.00;;;;;;;;;;4898445;29;20469;-80
2022/01/19 16:09:15;;;;;;;10.57;5.78;;;;;;;;;;4897885;29;20020;-80
2022/01/19 16:11:42;;;;;;;12.52;5.90;;;;;;;;;;4898762;29;20377;-79
2022/01/19 16:14:08;;;;;;;13.35;6.45;;;;;;;;;;4898353;29;20032;-81
2022/01/19 16:16:34;;;;;;;20.83;8.88;;;;;;;;;;4897291;29;20111;-80